Time;durP1;ratioP1;P1;durP2;ratioP2;P2;SDS_P1;SDS_P2;PMS_P1;PMS_P2;Temp;Humidity;BMP_temperature;BMP_pressure;BME280_temperature;BME280_humidity;BME280_pressure;Samples;Min_cycle;Max_cycle;Signal;HPM_P1;HPM_P2
2022/03/17 00:02:27;;;;;;;15.60;5.47;;;;;;;8.27;100.00;102105.63;6270139;28;20133;-73
2022/03/17 00:05:29;;;;;;;8.55;5.22;;;;;;;8.32;100.00;102118.63;6270599;28;20056;-72
2022/03/17 00:08:30;;;;;;;14.60;5.95;;;;;;;8.29;100.00;102110.81;6270347;28;20056;-73
2022/03/17 00:11:31;;;;;;;13.02;6.20;;;;;;;8.28;100.00;102106.50;6268461;28;20049;-73
2022/03/17 00:14:33;;;;;;;15.18;6.57;;;;;;;8.27;100.00;102095.16;6270676;28;20497;-73
2022/03/17 00:17:36;;;;;;;13.82;6.93;;;;;;;8.29;100.00;102093.34;6274358;28;20048;-72
2022/03/17 00:20:37;;;;;;;14.02;6.07;;;;;;;8.28;100.00;102083.78;6274506;28;20059;-73
2022/03/17 00:23:38;;;;;;;13.75;5.53;;;;;;;8.32;100.00;102081.97;6275347;28;20064;-73
2022/03/17 00:26:40;;;;;;;11.38;5.53;;;;;;;8.28;100.00;102083.78;6275036;28;20067;-72
2022/03/17 00:29:41;;;;;;;11.93;6.38;;;;;;;8.22;100.00;102097.03;6274672;28;20060;-73
2022/03/17 00:32:44;;;;;;;11.50;6.05;;;;;;;8.26;100.00;102093.41;6274447;28;20052;-73
2022/03/17 00:35:46;;;;;;;15.25;7.35;;;;;;;8.27;100.00;102102.16;6274691;28;20045;-73
2022/03/17 00:38:48;;;;;;;11.32;6.07;;;;;;;8.24;100.00;102099.59;6274893;28;20061;-73
2022/03/17 00:41:50;;;;;;;14.98;6.32;;;;;;;8.19;100.00;102098.84;6274020;28;20048;-73
2022/03/17 00:44:52;;;;;;;12.18;5.97;;;;;;;8.23;100.00;102108.34;6274760;28;20386;-73
2022/03/17 00:47:55;;;;;;;10.55;5.40;;;;;;;8.15;100.00;102111.13;6272753;28;20048;-73
2022/03/17 00:50:56;;;;;;;12.90;6.38;;;;;;;8.15;100.00;102108.50;6285308;28;20045;-73
2022/03/17 00:53:58;;;;;;;14.55;6.90;;;;;;;8.19;100.00;102111.94;6288038;28;20051;-73
2022/03/17 00:56:59;;;;;;;16.45;5.68;;;;;;;8.15;100.00;102116.38;6299322;28;20059;-73
2022/03/17 01:00:01;;;;;;;13.77;7.00;;;;;;;8.10;100.00;102112.97;6294954;28;20044;-73
2022/03/17 01:03:05;;;;;;;14.10;6.60;;;;;;;8.09;100.00;102096.41;6284584;28;20488;-73
2022/03/17 01:06:06;;;;;;;11.27;5.82;;;;;;;8.04;100.00;102106.13;6274178;28;20056;-73
2022/03/17 01:09:07;;;;;;;14.32;6.43;;;;;;;8.03;100.00;102103.53;6278170;28;20423;-73
2022/03/17 01:12:09;;;;;;;12.40;4.93;;;;;;;8.01;100.00;102105.31;6289451;28;20047;-73
2022/03/17 01:15:11;;;;;;;12.73;5.53;;;;;;;7.98;100.00;102106.22;6298760;28;20055;-74
2022/03/17 01:18:15;;;;;;;13.77;6.28;;;;;;;8.01;100.00;102094.84;6298509;28;20044;-73
2022/03/17 01:21:16;;;;;;;11.43;5.50;;;;;;;8.00;100.00;102090.50;6297914;28;20055;-73
2022/03/17 01:24:18;;;;;;;12.45;6.13;;;;;;;8.01;100.00;102093.09;6298705;28;20055;-72
2022/03/17 01:27:20;;;;;;;15.25;6.20;;;;;;;7.99;100.00;102086.16;6298401;28;20052;-73
2022/03/17 01:30:21;;;;;;;13.05;5.47;;;;;;;7.97;100.00;102086.19;6297894;28;20048;-73
2022/03/17 01:33:24;;;;;;;11.10;5.57;;;;;;;7.95;100.00;102074.03;6298236;28;20407;-72
2022/03/17 01:36:25;;;;;;;15.10;6.93;;;;;;;7.93;100.00;102054.88;6298291;28;20059;-73
2022/03/17 01:39:27;;;;;;;15.88;7.03;;;;;;;7.88;100.00;102060.22;6298221;28;20044;-73
2022/03/17 01:42:28;;;;;;;13.20;6.13;;;;;;;7.87;100.00;102071.59;6297464;28;20059;-72
2022/03/17 01:45:29;;;;;;;11.88;5.75;;;;;;;7.89;100.00;102062.78;6297981;28;20504;-73
2022/03/17 01:48:32;;;;;;;11.10;5.65;;;;;;;7.88;100.00;102063.69;6297945;28;20045;-73
2022/03/17 01:51:33;;;;;;;11.52;5.50;;;;;;;7.86;100.00;102060.25;6297236;28;20056;-73
2022/03/17 01:54:36;;;;;;;16.27;6.10;;;;;;;7.84;100.00;102055.94;6297848;28;20049;-73
2022/03/17 01:57:39;;;;;;;10.43;5.45;;;;;;;7.79;100.00;102047.31;6297695;28;20040;-73
2022/03/17 02:00:42;;;;;;;14.32;6.60;;;;;;;7.81;100.00;102043.78;6296876;28;20488;-72
2022/03/17 02:03:47;;;;;;;12.10;5.75;;;;;;;7.83;100.00;102041.13;6297816;28;20066;-73
2022/03/17 02:06:49;;;;;;;12.13;6.03;;;;;;;7.79;100.00;102037.72;6297500;28;20044;-72
2022/03/17 02:09:50;;;;;;;11.07;5.85;;;;;;;7.74;100.00;102026.47;6297389;28;20051;-73
2022/03/17 02:13:09;;;;;;;14.00;7.45;;;;;;;7.76;100.00;102019.44;6296914;28;20511;-73
2022/03/17 02:16:10;;;;;;;13.13;5.80;;;;;;;7.73;100.00;102018.69;6297489;28;20584;-73
2022/03/17 02:19:13;;;;;;;12.73;5.93;;;;;;;7.71;100.00;102021.31;6296925;28;20051;-73
2022/03/17 02:22:16;;;;;;;12.75;5.60;;;;;;;7.75;100.00;102014.25;6296613;28;20044;-73
2022/03/17 02:25:34;;;;;;;14.80;6.47;;;;;;;7.71;100.00;102015.22;6296936;28;20427;-73
2022/03/17 02:28:35;;;;;;;14.45;6.57;;;;;;;7.58;100.00;102004.13;6296981;28;20446;-73
2022/03/17 02:31:38;;;;;;;14.50;5.93;;;;;;;7.64;100.00;102001.41;6296303;28;20055;-73
2022/03/17 02:34:39;;;;;;;14.57;5.88;;;;;;;7.67;100.00;101998.72;6297002;28;20500;-73
2022/03/17 02:37:41;;;;;;;12.60;6.65;;;;;;;7.63;100.00;101989.22;6296786;28;20051;-73
2022/03/17 02:40:45;;;;;;;15.95;6.43;;;;;;;7.58;100.00;101977.97;6295600;28;20081;-73
2022/03/17 02:43:47;;;;;;;17.45;6.78;;;;;;;7.58;100.00;101981.44;6296862;28;20048;-73
2022/03/17 02:46:48;;;;;;;18.98;6.97;;;;;;;7.62;100.00;101971.78;6296598;28;20102;-73
2022/03/17 02:49:50;;;;;;;16.90;6.97;;;;;;;7.57;100.00;101982.34;6296370;28;20053;-73
2022/03/17 02:52:51;;;;;;;11.38;5.40;;;;;;;7.58;100.00;101972.75;6296178;28;20049;-73
2022/03/17 02:55:53;;;;;;;14.27;7.10;;;;;;;7.58;100.00;101972.75;6296740;28;20071;-73
2022/03/17 02:58:55;;;;;;;16.85;6.40;;;;;;;7.59;100.00;101971.88;6296417;28;20040;-73
2022/03/17 03:01:56;;;;;;;15.48;7.15;;;;;;;7.59;100.00;101967.50;6295830;28;20052;-73
2022/03/17 03:04:57;;;;;;;18.88;7.70;;;;;;;7.62;100.00;101963.94;6296680;28;20484;-73
2022/03/17 03:07:59;;;;;;;17.35;7.35;;;;;;;7.56;100.00;101962.31;6280407;28;20052;-73
2022/03/17 03:11:02;;;;;;;13.40;6.78;;;;;;;7.58;100.00;101957.06;6285595;28;20057;-73
2022/03/17 03:14:04;;;;;;;17.17;7.80;;;;;;;7.58;100.00;101951.81;6279474;28;20049;-73
2022/03/17 03:17:06;;;;;;;11.70;6.18;;;;;;;7.55;100.00;101944.91;6271335;28;20045;-73
2022/03/17 03:20:09;;;;;;;18.73;8.40;;;;;;;7.55;100.00;101947.53;6279153;28;20056;-73
2022/03/17 03:23:11;;;;;;;14.25;6.40;;;;;;;7.62;100.00;101937.78;6270799;28;20052;-73
2022/03/17 03:26:13;;;;;;;15.55;7.18;;;;;;;7.61;100.00;101936.91;6271145;28;20048;-73
2022/03/17 03:29:21;;;;;;;16.73;6.70;;;;;;;7.56;100.00;101933.56;6279564;28;20513;-73
2022/03/17 03:32:24;;;;;;;14.73;7.20;;;;;;;7.50;100.00;101933.69;6274363;28;20041;-73
2022/03/17 03:38:42;;;;;;;17.13;7.75;;;;;;;7.54;100.00;101929.22;6262112;28;20080;-73
2022/03/17 03:41:44;;;;;;;20.60;7.50;;;;;;;7.49;100.00;101924.09;6294860;28;20557;-73
2022/03/17 03:44:46;;;;;;;15.65;7.15;;;;;;;7.53;100.00;101935.38;6295896;28;20511;-72
2022/03/17 03:47:48;;;;;;;18.08;7.93;;;;;;;7.54;100.00;101921.38;6295981;28;20049;-72
2022/03/17 03:50:49;;;;;;;17.60;7.88;;;;;;;7.51;100.00;101922.34;6296366;28;20048;-73
2022/03/17 03:57:10;;;;;;;17.03;8.20;;;;;;;7.53;100.00;101931.00;6300507;28;20052;-73
2022/03/17 04:00:22;;;;;;;18.35;7.90;;;;;;;7.54;100.00;101924.88;6300423;28;20052;-72
2022/03/17 04:03:23;;;;;;;18.33;8.60;;;;;;;7.54;100.00;101922.28;6300548;28;20053;-73
2022/03/17 04:06:25;;;;;;;14.70;7.45;;;;;;;7.56;100.00;101927.47;6300511;28;20052;-73
2022/03/17 04:09:28;;;;;;;20.40;8.57;;;;;;;7.56;100.00;101927.47;6300371;28;20064;-72
2022/03/17 04:12:30;;;;;;;20.60;8.43;;;;;;;7.58;100.00;101933.50;6299524;28;20092;-73
2022/03/17 04:15:32;;;;;;;16.52;8.90;;;;;;;7.56;100.00;101944.00;6300195;28;20059;-73
2022/03/17 04:18:33;;;;;;;15.95;7.30;;;;;;;7.55;100.00;101952.75;6299876;28;20416;-73
2022/03/17 04:21:34;;;;;;;17.75;8.25;;;;;;;7.62;100.00;101937.78;6299385;28;20055;-73
2022/03/17 04:24:37;;;;;;;19.98;8.20;;;;;;;7.63;100.00;101939.53;6282438;28;20049;-73
2022/03/17 04:27:40;;;;;;;18.65;7.65;;;;;;;7.61;100.00;101943.91;6274396;28;20110;-73
2022/03/17 04:30:41;;;;;;;18.98;7.97;;;;;;;7.59;100.00;101943.97;6274321;28;20052;-73
2022/03/17 04:33:42;;;;;;;18.35;7.53;;;;;;;7.60;100.00;101939.59;6275135;28;20055;-73
2022/03/17 04:36:44;;;;;;;17.40;8.25;;;;;;;7.63;100.00;101942.16;6274677;28;20447;-73
2022/03/17 04:39:45;;;;;;;18.27;7.65;;;;;;;7.61;100.00;101938.69;6274356;28;20503;-73
2022/03/17 04:42:48;;;;;;;17.63;8.05;;;;;;;7.58;100.00;101942.22;6273558;28;20049;-73
2022/03/17 04:45:49;;;;;;;17.08;7.38;;;;;;;7.62;100.00;101943.88;6273932;28;20049;-72
2022/03/17 04:48:51;;;;;;;22.08;7.60;;;;;;;7.62;100.00;101945.63;6274473;28;20060;-73
2022/03/17 04:51:52;;;;;;;21.77;7.90;;;;;;;7.60;100.00;101944.81;6273974;28;20053;-73
2022/03/17 04:54:54;;;;;;;17.38;7.93;;;;;;;7.61;100.00;101955.22;6274662;28;20059;-73
2022/03/17 04:57:58;;;;;;;20.63;8.13;;;;;;;7.62;100.00;101967.41;6274136;28;20058;-73
2022/03/17 05:01:00;;;;;;;17.67;8.20;;;;;;;7.67;100.00;101971.69;6273400;28;20139;-73
2022/03/17 05:04:01;;;;;;;18.58;7.90;;;;;;;7.67;100.00;101972.53;6272401;28;20522;-73
2022/03/17 05:07:03;;;;;;;17.83;8.15;;;;;;;7.67;100.00;101975.16;6272358;28;20045;-73
2022/03/17 05:10:06;;;;;;;18.77;7.93;;;;;;;7.68;100.00;101973.44;6274658;28;20041;-73
2022/03/17 05:13:10;;;;;;;16.42;7.97;;;;;;;7.67;100.00;101971.69;6275228;28;20052;-72
2022/03/17 05:16:12;;;;;;;19.95;8.73;;;;;;;7.67;100.00;101974.31;6270968;28;20059;-73
2022/03/17 05:19:13;;;;;;;18.33;8.63;;;;;;;7.62;100.00;101979.63;6274461;28;20052;-73
2022/03/17 05:22:14;;;;;;;19.25;7.95;;;;;;;7.62;100.00;101977.03;6271671;28;20052;-73
2022/03/17 05:25:15;;;;;;;19.25;7.80;;;;;;;7.61;100.00;101981.41;6271982;28;20072;-73
2022/03/17 05:28:19;;;;;;;22.27;8.60;;;;;;;7.57;100.00;101987.59;6275246;28;20052;-73
2022/03/17 05:31:20;;;;;;;17.60;7.55;;;;;;;7.54;100.00;101982.44;6274756;28;20060;-72
2022/03/17 05:34:22;;;;;;;16.00;7.10;;;;;;;7.56;100.00;101980.63;6282379;28;20511;-73
2022/03/17 05:37:23;;;;;;;21.52;9.10;;;;;;;7.53;100.00;101988.53;6298223;28;20048;-73
2022/03/17 05:40:25;;;;;;;14.27;7.97;;;;;;;7.55;100.00;101989.38;6297665;28;20049;-72
2022/03/17 05:43:28;;;;;;;22.63;8.48;;;;;;;7.57;100.00;101994.56;6298043;28;20056;-72
2022/03/17 05:46:29;;;;;;;24.63;7.65;;;;;;;7.59;100.00;101984.97;6298162;28;20056;-73
2022/03/17 05:49:31;;;;;;;19.55;8.27;;;;;;;7.58;100.00;101984.06;6298070;28;20059;-73
2022/03/17 05:52:32;;;;;;;20.05;8.70;;;;;;;7.55;100.00;101981.53;6297351;28;20173;-73
2022/03/17 05:55:34;;;;;;;20.27;8.70;;;;;;;7.60;100.00;101978.81;6297789;28;20048;-73
2022/03/17 05:58:37;;;;;;;26.10;9.15;;;;;;;7.57;100.00;101981.50;6297554;28;20541;-72
2022/03/17 06:01:38;;;;;;;21.55;8.65;;;;;;;7.57;100.00;101984.97;6297072;28;20052;-73
2022/03/17 06:04:41;;;;;;;19.60;8.18;;;;;;;7.62;100.00;101990.97;6285278;28;20045;-73
2022/03/17 06:07:44;;;;;;;21.13;9.07;;;;;;;7.61;100.00;101996.22;6289304;28;20056;-73
2022/03/17 06:10:46;;;;;;;16.42;8.25;;;;;;;7.62;100.00;101988.34;6284857;28;20493;-72
2022/03/17 06:13:49;;;;;;;16.48;7.38;;;;;;;7.67;100.00;101992.63;6296754;28;20055;-72
2022/03/17 06:16:50;;;;;;;20.70;8.40;;;;;;;7.68;100.00;102000.47;6297164;28;20056;-73
2022/03/17 06:19:51;;;;;;;17.15;8.45;;;;;;;7.69;100.00;101996.94;6295532;28;20052;-73
2022/03/17 06:22:55;;;;;;;18.90;8.82;;;;;;;7.67;100.00;101995.22;6284562;28;20048;-73
2022/03/17 06:25:56;;;;;;;21.48;8.43;;;;;;;7.69;100.00;101999.56;6297183;28;20059;-73
2022/03/17 06:28:59;;;;;;;14.57;7.00;;;;;;;7.70;100.00;101996.03;6296908;28;20410;-73
2022/03/17 06:32:00;;;;;;;20.38;9.13;;;;;;;7.72;100.00;102003.84;6296335;28;20048;-72
2022/03/17 06:35:02;;;;;;;17.98;8.90;;;;;;;7.74;100.00;102009.94;6296814;28;20423;-74
2022/03/17 06:38:05;;;;;;;19.55;8.05;;;;;;;7.73;100.00;101998.59;6296603;28;20384;-73
2022/03/17 06:41:06;;;;;;;19.40;9.43;;;;;;;7.79;100.00;101998.47;6283504;28;20045;-73
2022/03/17 06:44:09;;;;;;;20.17;8.63;;;;;;;7.77;100.00;102007.25;6271697;28;20493;-73
2022/03/17 06:47:10;;;;;;;15.75;8.52;;;;;;;7.80;100.00;102017.63;6271872;28;20049;-72
2022/03/17 06:50:13;;;;;;;23.13;8.60;;;;;;;7.83;100.00;102021.06;6273690;28;20041;-73
2022/03/17 06:53:15;;;;;;;17.88;8.18;;;;;;;7.83;100.00;102021.06;6279748;28;20041;-73
2022/03/17 06:56:16;;;;;;;20.33;8.50;;;;;;;7.87;100.00;102024.47;6271547;28;20397;-73
2022/03/17 06:59:19;;;;;;;20.50;9.45;;;;;;;7.92;100.00;102027.00;6271860;28;20060;-73
2022/03/17 07:02:20;;;;;;;19.55;8.48;;;;;;;7.96;100.00;102029.50;6279102;28;20056;-73
2022/03/17 07:05:21;;;;;;;18.23;8.88;;;;;;;7.98;100.00;102035.56;6246816;28;20505;-73
2022/03/17 07:08:23;;;;;;;22.50;9.23;;;;;;;8.02;100.00;102037.22;6259487;28;20041;-73
2022/03/17 07:11:24;;;;;;;17.63;8.50;;;;;;;8.04;100.00;102040.69;6276823;28;20052;-73
2022/03/17 07:14:27;;;;;;;15.20;8.45;;;;;;;8.09;100.00;102036.19;6290229;28;20428;-73
2022/03/17 07:17:36;;;;;;;16.13;8.13;;;;;;;8.11;100.00;102044.88;6287543;28;20059;-73
2022/03/17 07:20:37;;;;;;;21.85;9.40;;;;;;;8.11;100.00;102044.88;6288787;28;20134;-73
2022/03/17 07:23:39;;;;;;;20.60;8.25;;;;;;;8.16;100.00;102051.75;6287670;28;20044;-73
2022/03/17 07:26:40;;;;;;;20.77;9.02;;;;;;;8.20;100.00;102059.50;6303563;28;20052;-72
2022/03/17 07:29:44;;;;;;;21.35;9.32;;;;;;;8.22;100.00;102076.06;6281088;28;20435;-74
2022/03/17 07:32:47;;;;;;;18.80;8.65;;;;;;;8.23;100.00;102075.16;6285631;28;20040;-75
2022/03/17 07:35:49;;;;;;;19.52;8.77;;;;;;;8.25;100.00;102083.84;6283580;28;20049;-75
2022/03/17 07:38:50;;;;;;;17.23;7.90;;;;;;;8.26;100.00;102085.56;6279193;28;20056;-74
2022/03/17 07:41:51;;;;;;;19.23;9.18;;;;;;;8.28;100.00;102091.63;6278758;28;20424;-74
2022/03/17 07:44:54;;;;;;;18.38;8.45;;;;;;;8.26;100.00;102093.41;6279144;28;20052;-74
2022/03/17 07:47:55;;;;;;;24.00;9.85;;;;;;;8.23;100.00;102100.50;6279324;28;20059;-74
2022/03/17 07:50:57;;;;;;;21.83;9.38;;;;;;;8.17;100.00;102104.09;6271556;28;20061;-73
2022/03/17 07:53:58;;;;;;;18.58;9.07;;;;;;;8.18;100.00;102108.44;6254648;28;20059;-73
2022/03/17 07:57:00;;;;;;;22.67;9.30;;;;;;;8.19;100.00;102114.53;6254403;28;20049;-76
2022/03/17 08:00:04;;;;;;;19.20;9.20;;;;;;;8.21;100.00;102116.22;6254497;28;20046;-73
2022/03/17 08:03:06;;;;;;;26.73;10.13;;;;;;;8.18;100.00;102123.31;6254023;28;20048;-74
2022/03/17 08:06:07;;;;;;;22.67;9.75;;;;;;;8.17;100.00;102126.78;6254320;28;20424;-72
2022/03/17 08:09:08;;;;;;;16.42;9.30;;;;;;;8.12;100.00;102127.75;6254258;28;20631;-73
2022/03/17 08:12:10;;;;;;;25.55;10.13;;;;;;;8.11;100.00;102128.66;6263455;28;20045;-73
2022/03/17 08:15:13;;;;;;;19.75;9.63;;;;;;;8.10;100.00;102134.78;6291233;28;20044;-72
2022/03/17 08:18:15;;;;;;;21.00;8.75;;;;;;;8.07;100.00;102139.22;6294155;28;20676;-73
2022/03/17 08:21:16;;;;;;;18.92;10.30;;;;;;;8.07;100.00;102139.22;6283647;28;20048;-72
2022/03/17 08:24:18;;;;;;;22.98;9.73;;;;;;;8.10;100.00;102147.03;6278524;28;20053;-72
2022/03/17 08:27:19;;;;;;;21.50;9.10;;;;;;;8.04;100.00;102158.50;6278863;28;20053;-72
2022/03/17 08:30:22;;;;;;;23.67;11.15;;;;;;;8.03;100.00;102161.97;6277848;28;20055;-72
2022/03/17 08:33:24;;;;;;;24.48;10.38;;;;;;;7.97;100.00;102167.34;6282716;28;20055;-72
2022/03/17 08:36:25;;;;;;;23.48;10.10;;;;;;;7.93;100.00;102170.06;6293668;28;20053;-73
2022/03/17 08:39:27;;;;;;;25.77;10.75;;;;;;;7.87;100.00;102176.28;6293968;28;20045;-72
2022/03/17 08:42:28;;;;;;;24.80;11.52;;;;;;;7.87;100.00;102181.50;6274096;28;20055;-71
2022/03/17 08:52:09;;;;;;;28.33;11.63;;;;;;;7.83;100.00;102200.78;6269367;28;20045;-73
2022/03/17 08:55:11;;;;;;;23.88;9.90;;;;;;;7.83;100.00;102203.38;6274105;28;20080;-73
2022/03/17 08:58:13;;;;;;;22.55;11.15;;;;;;;7.81;100.00;102211.28;6274397;28;20060;-72
2022/03/17 09:01:15;;;;;;;23.70;11.38;;;;;;;7.80;100.00;102212.16;6273409;28;20045;-72
2022/03/17 09:04:17;;;;;;;22.30;10.52;;;;;;;7.81;100.00;102219.13;6274482;28;20187;-72
2022/03/17 09:07:18;;;;;;;26.95;11.40;;;;;;;7.83;100.00;102225.19;6272798;28;20045;-75
2022/03/17 09:10:20;;;;;;;25.33;11.93;;;;;;;7.85;100.00;102233.84;6284634;28;20510;-73
2022/03/17 09:13:23;;;;;;;25.55;11.10;;;;;;;7.84;100.00;102246.97;6263725;28;20049;-73
2022/03/17 09:16:25;;;;;;;24.38;9.95;;;;;;;7.82;100.00;102251.41;6271685;28;20045;-74
2022/03/17 09:19:27;;;;;;;24.42;10.48;;;;;;;7.81;100.00;102255.78;6276970;28;20041;-74
2022/03/17 09:22:28;;;;;;;23.73;11.02;;;;;;;7.81;100.00;102268.84;6280280;28;20049;-73
2022/03/17 09:25:30;;;;;;;28.90;12.35;;;;;;;7.83;100.00;102269.69;6283038;28;20048;-73
2022/03/17 09:28:31;;;;;;;26.23;12.23;;;;;;;7.85;100.00;102277.50;6298330;28;20438;-73
2022/03/17 09:31:35;;;;;;;28.58;11.93;;;;;;;7.86;100.00;102287.09;6297937;28;20053;-74
2022/03/17 09:34:36;;;;;;;23.58;12.07;;;;;;;7.85;100.00;102294.06;6298233;28;20049;-74
2022/03/17 09:37:38;;;;;;;29.15;12.77;;;;;;;8.06;100.00;102299.81;6273199;28;20048;-73
2022/03/17 09:40:39;;;;;;;21.45;10.48;;;;;;;8.00;100.00;102306.03;6271722;28;20041;-75
2022/03/17 09:43:41;;;;;;;22.33;10.02;;;;;;;7.92;100.00;102321.00;6273030;28;20052;-73
2022/03/17 09:46:44;;;;;;;19.90;9.52;;;;;;;7.65;100.00;102324.94;6270018;28;20057;-72
2022/03/17 09:49:47;;;;;;;21.10;7.40;;;;;;;7.57;100.00;102332.91;6266684;28;20487;-75
2022/03/17 09:52:48;;;;;;;14.38;6.82;;;;;;;7.55;100.00;102344.28;6272599;28;20049;-73
2022/03/17 09:55:50;;;;;;;14.95;5.40;;;;;;;7.67;100.00;102349.31;6272853;28;20052;-75
2022/03/17 09:58:52;;;;;;;15.40;6.63;;;;;;;7.54;100.00;102356.50;6270652;28;20045;-74
2022/03/17 10:01:55;;;;;;;12.02;4.22;;;;;;;7.32;100.00;102361.19;6271799;28;20052;-75
2022/03/17 10:04:56;;;;;;;8.32;4.40;;;;;;;7.30;100.00;102372.53;6271917;28;20045;-74
2022/03/17 10:07:57;;;;;;;6.50;3.50;;;;;;;7.34;100.00;102380.31;6272585;28;20076;-73
2022/03/17 10:10:59;;;;;;;9.25;5.00;;;;;;;7.38;100.00;102383.75;6271525;28;20045;-74
2022/03/17 10:14:05;;;;;;;7.75;4.10;;;;;;;7.23;100.00;102394.44;6270067;28;20041;-75
2022/03/17 10:17:10;;;;;;;12.60;4.03;;;;;;;7.20;100.00;102402.31;6272710;28;20618;-74
2022/03/17 10:20:17;;;;;;;7.85;4.63;;;;;;;7.21;100.00;102412.72;6272002;28;20041;-74
2022/03/17 10:23:24;;;;;;;12.65;4.43;;;;;;;7.35;100.00;102417.78;6268154;28;20045;-75
2022/03/17 10:26:38;;;;;;;7.35;3.80;;;;;;;7.42;100.00;102432.53;6264658;28;20067;-74
2022/03/17 10:29:39;;;;;;;5.35;2.97;;;;;;;7.36;100.00;102432.63;6272390;28;20516;-74
2022/03/17 10:32:55;;;;;;;7.57;4.13;;;;;;;7.47;100.00;102430.72;6271744;28;20045;-75
2022/03/17 10:36:13;;;;;;;7.53;3.45;;;;;;;7.49;100.00;102438.53;6272286;28;20049;-74
2022/03/17 10:39:15;;;;;;;5.60;3.20;;;;;;;7.41;100.00;102441.28;6271937;28;20071;-75
2022/03/17 10:42:18;;;;;;;7.43;3.40;;;;;;;7.42;100.00;102448.22;6271275;28;20048;-75
2022/03/17 10:45:20;;;;;;;4.05;2.42;;;;;;;7.46;100.00;102447.31;6271678;28;20412;-74
2022/03/17 10:48:22;;;;;;;6.57;2.90;;;;;;;7.60;100.00;102455.81;6272370;28;20045;-75
2022/03/17 10:51:32;;;;;;;7.30;3.47;;;;;;;7.57;100.00;102471.56;6269128;28;20520;-74
2022/03/17 10:54:33;;;;;;;7.07;2.95;;;;;;;7.61;100.00;102477.63;6265769;28;20053;-76
2022/03/17 10:57:34;;;;;;;4.82;2.70;;;;;;;7.62;100.00;102490.66;6269928;28;20049;-75
2022/03/17 11:00:45;;;;;;;9.95;3.00;;;;;;;7.72;100.00;102499.28;6265668;28;20052;-74
2022/03/17 11:03:51;;;;;;;3.75;2.15;;;;;;;7.58;100.00;102503.81;6269804;28;20044;-75
2022/03/17 11:06:54;;;;;;;5.80;3.47;;;;;;;7.59;100.00;102506.44;6267142;28;20123;-75
2022/03/17 11:09:56;;;;;;;4.18;2.35;;;;;;;7.54;100.00;102518.72;6273430;28;20047;-76
2022/03/17 11:12:59;;;;;;;4.53;2.75;;;;;;;7.66;100.00;102509.81;6278289;28;20057;-74
2022/03/17 11:16:07;;;;;;;4.60;2.58;;;;;;;7.67;100.00;102524.63;6286737;28;20053;-75
2022/03/17 11:19:13;;;;;;;5.10;2.20;;;;;;;7.80;100.00;102531.44;6291914;28;20044;-75
2022/03/17 11:22:17;;;;;;;2.92;1.95;;;;;;;7.62;100.00;102540.38;6288476;28;20040;-76
2022/03/17 11:25:20;;;;;;;3.00;1.98;;;;;;;7.63;100.00;102546.50;6284417;28;20052;-77
2022/03/17 11:28:32;;;;;;;4.47;2.30;;;;;;;7.62;100.00;102553.47;6271430;28;20061;-75
2022/03/17 11:31:53;;;;;;;4.88;2.05;;;;;;;7.65;100.00;102560.44;6270884;28;20052;-77
2022/03/17 11:35:09;;;;;;;2.72;1.80;;;;;;;7.69;100.00;102559.50;6271538;28;20051;-77
2022/03/17 11:38:18;;;;;;;6.05;2.17;;;;;;;7.71;100.00;102569.94;6271535;28;20053;-76
2022/03/17 11:41:22;;;;;;;4.05;1.88;;;;;;;7.72;100.00;102571.66;6270382;28;20053;-75
2022/03/17 11:44:32;;;;;;;2.78;1.88;;;;;;;7.56;100.00;102577.09;6270869;28;20056;-76
2022/03/17 11:47:36;;;;;;;5.18;2.38;;;;;;;7.72;100.00;102593.50;6271297;28;20067;-76
2022/03/17 11:50:50;;;;;;;4.55;2.22;;;;;;;7.70;100.00;102589.16;6270072;28;20496;-74
2022/03/17 11:54:04;;;;;;;2.15;1.48;;;;;;;7.72;100.00;102603.06;6271099;28;20049;-75
2022/03/17 11:57:05;;;;;;;2.45;1.50;;;;;;;7.58;100.00;102600.63;6270936;28;20710;-75
2022/03/17 12:00:08;;;;;;;3.25;1.20;;;;;;;7.56;100.00;102599.78;6270563;28;20538;-76
2022/03/17 12:03:10;;;;;;;4.50;1.55;;;;;;;7.51;100.00;102605.06;6270756;28;20516;-75
2022/03/17 12:06:15;;;;;;;3.90;1.10;;;;;;;7.61;100.00;102614.53;6270774;28;20049;-75
2022/03/17 12:09:30;;;;;;;3.45;1.70;;;;;;;7.63;100.00;102617.16;6270866;28;20049;-74
2022/03/17 12:12:33;;;;;;;4.63;1.02;;;;;;;7.57;100.00;102625.91;6272692;28;20053;-76
2022/03/17 12:15:37;;;;;;;1.95;1.02;;;;;;;7.49;100.00;102629.50;6275349;28;20056;-75
2022/03/17 12:19:01;;;;;;;1.20;1.10;;;;;;;7.49;100.00;102639.94;6275106;28;20063;-75
2022/03/17 12:22:36;;;;;;;8.95;1.63;;;;;;;7.47;100.00;102645.22;6249949;28;20046;-75
2022/03/17 12:26:04;;;;;;;2.08;0.90;;;;;;;7.47;100.00;102647.81;6250477;28;20049;-75
2022/03/17 12:29:07;;;;;;;0.77;0.50;;;;;;;7.53;100.00;102649.50;6250494;28;20053;-74
2022/03/17 12:32:11;;;;;;;5.93;1.33;;;;;;;7.53;100.00;102663.44;6249626;28;20522;-75
2022/03/17 12:35:13;;;;;;;1.77;0.95;;;;;;;7.53;100.00;102673.91;6261975;28;20044;-74
2022/03/17 12:38:20;;;;;;;0.77;0.55;;;;;;;7.60;100.00;102672.13;6274816;28;20049;-75
2022/03/17 12:41:22;;;;;;;2.42;1.58;;;;;;;7.57;100.00;102674.75;6274394;28;20049;-74
2022/03/17 12:44:24;;;;;;;2.50;1.00;;;;;;;7.50;100.00;102675.72;6274835;28;20053;-75
2022/03/17 12:47:27;;;;;;;2.13;0.75;;;;;;;7.43;100.00;102682.75;6274769;28;20436;-75
2022/03/17 12:50:30;;;;;;;2.00;0.90;;;;;;;7.51;100.00;102682.69;6284603;28;20056;-75
2022/03/17 12:53:32;;;;;;;1.48;0.82;;;;;;;7.54;100.00;102687.88;6276394;28;20056;-76
2022/03/17 12:56:46;;;;;;;6.32;1.75;;;;;;;7.67;100.00;102696.47;6290911;28;20045;-76
2022/03/17 12:59:48;;;;;;;3.35;0.75;;;;;;;7.61;100.00;102695.66;6290436;28;20515;-75
2022/03/17 13:02:52;;;;;;;6.30;1.48;;;;;;;7.53;100.00;102707.94;6274120;28;20049;-78
2022/03/17 13:09:14;;;;;;;;;;;;;;;7.46;100.00;102721.97;6274691;28;20497;-74
2022/03/17 13:15:36;;;;;;;5.13;0.85;;;;;;;7.39;100.00;102725.50;6286635;28;20123;-75
2022/03/17 13:18:42;;;;;;;6.78;1.15;;;;;;;7.43;100.00;102731.56;6298257;28;20044;-74
2022/03/17 13:21:46;;;;;;;4.30;1.10;;;;;;;7.44;100.00;102746.38;6279437;28;20052;-75
2022/03/17 13:25:00;;;;;;;2.90;1.30;;;;;;;7.43;100.00;102734.19;6283424;28;20048;-76
2022/03/17 13:28:04;;;;;;;1.90;1.77;;;;;;;7.41;100.00;102744.69;6287342;28;20052;-75
2022/03/17 13:31:05;;;;;;;0.80;0.50;;;;;;;7.46;100.00;102739.41;6298215;28;20094;-75
2022/03/17 13:34:07;;;;;;;3.25;0.70;;;;;;;7.52;100.00;102753.28;6295739;28;20170;-74
2022/03/17 13:37:14;;;;;;;5.07;0.88;;;;;;;7.55;100.00;102744.56;6279410;28;20041;-73
2022/03/17 13:40:19;;;;;;;0.50;0.30;;;;;;;7.47;100.00;102764.69;6279134;28;20053;-74
2022/03/17 13:43:26;;;;;;;2.15;0.57;;;;;;;7.56;100.00;102762.84;6269164;28;20063;-74
2022/03/17 13:46:31;;;;;;;4.32;0.40;;;;;;;7.59;100.00;102762.84;6273242;28;20056;-75
2022/03/17 13:49:36;;;;;;;1.23;0.73;;;;;;;7.61;100.00;102782.00;6273795;28;20132;-73
2022/03/17 13:52:39;;;;;;;4.97;0.70;;;;;;;7.46;100.00;102789.13;6280741;28;20048;-74
2022/03/17 13:55:46;;;;;;;5.43;1.10;;;;;;;7.54;100.00;102780.31;6273014;28;20405;-74
2022/03/17 13:58:57;;;;;;;6.20;0.77;;;;;;;7.53;100.00;102789.03;6273205;28;20048;-74
2022/03/17 14:02:12;;;;;;;7.75;0.68;;;;;;;7.58;100.00;102795.09;6272290;28;20056;-74
2022/03/17 14:05:15;;;;;;;7.22;0.82;;;;;;;7.65;100.00;102785.47;6273090;28;20126;-74
2022/03/17 14:08:16;;;;;;;2.83;0.52;;;;;;;7.77;100.00;102785.38;6272845;28;20049;-74
2022/03/17 14:11:21;;;;;;;2.38;0.65;;;;;;;7.72;100.00;102796.72;6279892;28;20483;-75
2022/03/17 14:14:22;;;;;;;7.78;0.82;;;;;;;7.73;100.00;102806.34;6281116;28;20503;-74
2022/03/17 14:17:23;;;;;;;2.00;0.93;;;;;;;7.81;100.00;102797.53;6297272;28;20083;-75
2022/03/17 14:20:25;;;;;;;1.65;0.85;;;;;;;7.84;100.00;102807.97;6281936;28;20131;-75
2022/03/17 14:26:50;;;;;;;8.98;1.15;;;;;;;7.99;100.00;102809.56;6272394;28;20057;-74
2022/03/17 14:29:52;;;;;;;1.73;0.70;;;;;;;8.10;100.00;102812.09;6272104;28;20056;-74